createdAt,value
2022-08-28T00:01:36.598Z,18.48
2022-08-28T00:04:03.966Z,18.46
2022-08-28T00:06:31.097Z,18.47
2022-08-28T00:08:59.004Z,18.46
2022-08-28T00:11:26.815Z,18.42
2022-08-28T00:13:54.986Z,18.39
2022-08-28T00:16:24.105Z,18.41
2022-08-28T00:18:53.748Z,18.38
2022-08-28T00:21:20.882Z,18.38
2022-08-28T00:23:48.351Z,18.36
2022-08-28T00:26:35.471Z,18.37
2022-08-28T00:29:03.580Z,18.39
2022-08-28T00:31:30.695Z,18.37
2022-08-28T00:33:57.771Z,18.34
2022-08-28T00:36:24.894Z,18.32
2022-08-28T00:38:51.963Z,18.28
2022-08-28T00:41:19.030Z,18.28
2022-08-28T00:44:04.860Z,18.30
2022-08-28T00:46:32.053Z,18.25
2022-08-28T00:48:59.142Z,18.25
2022-08-28T00:51:45.923Z,18.26
2022-08-28T00:54:13.183Z,18.22
2022-08-28T00:56:40.711Z,18.21
2022-08-28T00:59:10.248Z,18.20
2022-08-28T01:01:38.798Z,18.17
2022-08-28T01:04:06.351Z,18.17
2022-08-28T01:06:36.908Z,18.15
2022-08-28T01:09:04.344Z,18.13
2022-08-28T01:11:31.482Z,18.12
2022-08-28T01:14:00.918Z,18.09
2022-08-28T01:16:33.141Z,18.10
2022-08-28T01:19:06.006Z,18.06
2022-08-28T01:21:39.829Z,18.07
2022-08-28T01:24:14.324Z,18.06
2022-08-28T01:26:41.931Z,18.03
2022-08-28T01:29:09.507Z,18.04
2022-08-28T01:31:36.937Z,18.01
2022-08-28T01:34:04.821Z,17.97
2022-08-28T01:36:32.184Z,17.97
2022-08-28T01:39:11.681Z,17.97
2022-08-28T01:41:42.776Z,17.98
2022-08-28T01:44:09.913Z,17.97
2022-08-28T01:46:37.155Z,17.94
2022-08-28T01:49:06.387Z,17.93
2022-08-28T01:51:35.253Z,17.92
2022-08-28T01:54:06.226Z,17.93
2022-08-28T01:56:33.389Z,17.90
2022-08-28T01:59:02.586Z,17.87
2022-08-28T02:01:29.971Z,17.86
2022-08-28T02:03:57.179Z,17.84
2022-08-28T02:06:25.706Z,17.82
2022-08-28T02:08:55.491Z,17.83
2022-08-28T02:11:24.197Z,17.82
2022-08-28T02:13:51.856Z,17.82
2022-08-28T02:16:21.863Z,17.83
2022-08-28T02:18:49.015Z,17.82
2022-08-28T02:21:16.151Z,17.80
2022-08-28T02:23:43.901Z,17.79
2022-08-28T02:26:11.303Z,17.76
2022-08-28T02:28:38.438Z,17.78
2022-08-28T02:31:07.424Z,17.77
2022-08-28T02:33:38.401Z,17.74
2022-08-28T02:36:07.618Z,17.76
2022-08-28T02:38:34.801Z,17.77
2022-08-28T02:41:01.923Z,17.76
2022-08-28T02:43:32.295Z,17.73
2022-08-28T02:45:59.464Z,17.76
2022-08-28T02:48:30.087Z,17.72
2022-08-28T02:51:01.196Z,17.72
2022-08-28T02:53:29.020Z,17.72
2022-08-28T02:55:56.661Z,17.68
2022-08-28T02:58:23.737Z,17.69
2022-08-28T03:00:51.222Z,17.71
2022-08-28T03:03:18.278Z,17.66
2022-08-28T03:05:45.297Z,17.68
2022-08-28T03:08:12.556Z,17.65
2022-08-28T03:10:39.711Z,17.62
2022-08-28T03:13:06.801Z,17.61
2022-08-28T03:15:34.274Z,17.61
2022-08-28T03:18:01.476Z,17.59
2022-08-28T03:20:35.065Z,17.57
2022-08-28T03:23:21.516Z,17.55
2022-08-28T03:25:48.594Z,17.49
2022-08-28T03:28:15.750Z,17.48
2022-08-28T03:30:43.100Z,17.49
2022-08-28T03:33:10.251Z,17.47
2022-08-28T03:35:37.698Z,17.46
2022-08-28T03:38:04.984Z,17.44
2022-08-28T03:40:32.496Z,17.44
2022-08-28T03:42:59.731Z,17.42
2022-08-28T03:45:26.878Z,17.41
2022-08-28T03:47:54.268Z,17.40
2022-08-28T03:50:21.449Z,17.36
2022-08-28T03:52:48.574Z,17.35
2022-08-28T03:55:15.614Z,17.35
2022-08-28T03:57:42.695Z,17.35
2022-08-28T04:00:11.427Z,17.36
2022-08-28T04:02:42.157Z,17.36
2022-08-28T04:05:10.161Z,17.34
2022-08-28T04:07:37.550Z,17.31
2022-08-28T04:10:04.985Z,17.32
2022-08-28T04:12:34.508Z,17.31
2022-08-28T04:15:04.173Z,17.30
2022-08-28T04:17:31.331Z,17.33
2022-08-28T04:19:58.480Z,17.33
2022-08-28T04:22:25.572Z,17.35
2022-08-28T04:24:52.802Z,17.37
2022-08-28T04:27:20.393Z,17.36
2022-08-28T04:29:49.085Z,17.33
2022-08-28T04:32:16.272Z,17.31
2022-08-28T04:34:43.486Z,17.29
2022-08-28T04:37:10.515Z,17.27
2022-08-28T04:39:37.664Z,17.28
2022-08-28T04:42:04.957Z,17.26
2022-08-28T04:44:32.300Z,17.26
2022-08-28T04:46:59.459Z,17.28
2022-08-28T04:49:27.896Z,17.27
2022-08-28T04:51:55.035Z,17.30
2022-08-28T04:54:22.198Z,17.30
2022-08-28T04:56:49.232Z,17.27
2022-08-28T04:59:16.810Z,17.27
2022-08-28T05:01:44.112Z,17.26
2022-08-28T05:04:11.793Z,17.26
2022-08-28T05:06:43.414Z,17.26
2022-08-28T05:09:10.513Z,17.25
2022-08-28T05:11:37.765Z,17.24
2022-08-28T05:14:11.539Z,17.27
2022-08-28T05:16:43.163Z,17.28
2022-08-28T05:19:11.071Z,17.30
2022-08-28T05:21:38.769Z,17.28
2022-08-28T05:24:06.649Z,17.27
2022-08-28T05:26:34.634Z,17.27
2022-08-28T05:29:01.972Z,17.26
2022-08-28T05:31:30.528Z,17.25
2022-08-28T05:33:59.199Z,17.22
2022-08-28T05:36:32.310Z,17.23
2022-08-28T05:39:00.908Z,17.21
2022-08-28T05:41:30.143Z,17.22
2022-08-28T05:43:58.132Z,17.23
2022-08-28T05:46:28.213Z,17.25
2022-08-28T05:48:56.002Z,17.26
2022-08-28T05:51:24.112Z,17.25
2022-08-28T05:53:52.273Z,17.28
2022-08-28T05:56:23.697Z,17.28
2022-08-28T05:58:51.320Z,17.28
2022-08-28T06:01:19.748Z,17.29
2022-08-28T06:03:51.727Z,17.27
2022-08-28T06:06:18.881Z,17.29
2022-08-28T06:08:58.277Z,17.29
2022-08-28T06:11:30.931Z,17.32
2022-08-28T06:13:59.805Z,17.29
2022-08-28T06:16:29.382Z,17.26
2022-08-28T06:18:57.429Z,17.26
2022-08-28T06:21:24.753Z,17.27
2022-08-28T06:23:51.937Z,17.30
2022-08-28T06:26:19.135Z,17.28
2022-08-28T06:28:46.256Z,17.30
2022-08-28T06:31:23.330Z,17.32
2022-08-28T06:33:57.212Z,17.32
2022-08-28T06:36:25.499Z,17.31
2022-08-28T06:38:52.677Z,17.29
2022-08-28T06:41:19.757Z,17.29
2022-08-28T06:43:46.881Z,17.31
2022-08-28T06:46:14.237Z,17.31
2022-08-28T06:48:41.499Z,17.31
2022-08-28T06:51:10.133Z,17.32
2022-08-28T06:53:38.528Z,17.32
2022-08-28T06:56:11.804Z,17.33
2022-08-28T06:58:50.342Z,17.34
2022-08-28T07:01:24.413Z,17.35
2022-08-28T07:03:52.878Z,17.35
2022-08-28T07:06:21.605Z,17.37
2022-08-28T07:08:48.814Z,17.41
2022-08-28T07:11:21.840Z,17.46
2022-08-28T07:13:53.960Z,17.49
2022-08-28T07:16:22.670Z,17.54
2022-08-28T07:18:49.899Z,17.62
2022-08-28T07:21:16.978Z,17.70
2022-08-28T07:23:47.663Z,17.73
2022-08-28T07:26:16.949Z,17.80
2022-08-28T07:28:45.393Z,17.85
2022-08-28T07:31:15.053Z,17.93
2022-08-28T07:33:42.809Z,18.05
2022-08-28T07:36:16.575Z,18.12
2022-08-28T07:38:57.921Z,18.14
2022-08-28T07:41:26.778Z,18.11
2022-08-28T07:44:12.724Z,18.08
2022-08-28T07:46:40.392Z,18.12
2022-08-28T07:49:08.515Z,18.15
2022-08-28T07:51:35.867Z,18.15
2022-08-28T07:54:03.952Z,18.11
2022-08-28T07:56:31.454Z,18.16
2022-08-28T07:58:59.638Z,18.11
2022-08-28T08:01:28.907Z,18.18
2022-08-28T08:04:01.800Z,18.23
2022-08-28T08:06:34.354Z,18.23
2022-08-28T08:09:02.482Z,18.25
2022-08-28T08:11:32.157Z,18.34
2022-08-28T08:14:04.698Z,18.31
2022-08-28T08:16:38.788Z,18.32
2022-08-28T08:19:06.797Z,18.37
2022-08-28T08:21:33.900Z,18.39
2022-08-28T08:24:00.937Z,18.52
2022-08-28T08:26:28.591Z,18.62
2022-08-28T08:28:56.575Z,18.70
2022-08-28T08:31:34.117Z,18.70
2022-08-28T08:34:03.594Z,18.73
2022-08-28T08:36:32.282Z,18.74
2022-08-28T08:39:00.622Z,18.73
2022-08-28T08:41:33.583Z,18.69
2022-08-28T08:44:07.692Z,18.75
2022-08-28T08:46:43.269Z,18.90
2022-08-28T08:49:13.571Z,19.03
2022-08-28T08:51:42.837Z,19.09
2022-08-28T08:54:11.612Z,19.28
2022-08-28T08:56:39.848Z,19.36
2022-08-28T08:59:10.384Z,19.40
2022-08-28T09:01:55.976Z,19.40
2022-08-28T09:04:23.099Z,19.48
2022-08-28T09:06:52.596Z,19.50
2022-08-28T09:09:30.131Z,19.61
2022-08-28T09:12:05.339Z,19.73
2022-08-28T09:14:51.008Z,19.86
2022-08-28T09:17:19.825Z,19.82
2022-08-28T09:19:46.928Z,19.73
2022-08-28T09:22:14.680Z,19.55
2022-08-28T09:24:41.799Z,19.63
2022-08-28T09:27:21.535Z,19.74
2022-08-28T09:29:55.231Z,19.80
2022-08-28T09:32:30.862Z,19.79
2022-08-28T09:35:16.509Z,19.83
2022-08-28T09:37:44.169Z,19.88
2022-08-28T09:40:19.480Z,19.99
2022-08-28T09:43:20.572Z,20.03
2022-08-28T09:46:07.968Z,19.87
2022-08-28T09:48:36.513Z,19.93
2022-08-28T09:51:06.455Z,19.89
2022-08-28T09:53:35.789Z,19.88
2022-08-28T09:56:07.427Z,19.85
2022-08-28T09:58:39.835Z,19.75
2022-08-28T10:01:06.875Z,19.68
2022-08-28T10:03:38.981Z,19.62
2022-08-28T10:06:13.775Z,19.94
2022-08-28T10:08:50.183Z,20.17
2022-08-28T10:11:33.023Z,20.17
2022-08-28T10:14:11.527Z,20.40
2022-08-28T10:17:04.628Z,20.50
2022-08-28T10:19:43.859Z,20.50
2022-08-28T10:22:18.768Z,20.51
2022-08-28T10:24:54.819Z,20.57
2022-08-28T10:27:34.247Z,20.46
2022-08-28T10:30:12.410Z,20.32
2022-08-28T10:32:59.999Z,20.27
2022-08-28T10:35:42.941Z,20.30
2022-08-28T10:38:12.468Z,20.42
2022-08-28T10:40:41.785Z,20.55
2022-08-28T10:43:17.907Z,20.56
2022-08-28T10:45:45.618Z,20.54
2022-08-28T10:48:31.147Z,20.49
2022-08-28T10:51:04.064Z,20.55
2022-08-28T10:53:42.309Z,20.60
2022-08-28T10:56:09.450Z,20.78
2022-08-28T10:58:38.130Z,20.85
2022-08-28T11:01:06.966Z,21.09
2022-08-28T11:03:40.664Z,20.96
2022-08-28T11:06:12.501Z,20.91
2022-08-28T11:08:39.915Z,21.00
2022-08-28T11:11:12.370Z,21.11
2022-08-28T11:13:59.631Z,21.12
2022-08-28T11:16:30.369Z,21.04
2022-08-28T11:19:08.002Z,21.10
2022-08-28T11:21:55.317Z,21.38
2022-08-28T11:24:22.402Z,21.39
2022-08-28T11:27:02.096Z,21.29
2022-08-28T11:29:47.854Z,21.27
2022-08-28T11:32:33.207Z,21.21
2022-08-28T11:35:13.000Z,21.15
2022-08-28T11:37:40.485Z,21.12
2022-08-28T11:40:40.746Z,21.12
2022-08-28T11:43:19.148Z,21.11
2022-08-28T11:45:46.958Z,21.06
2022-08-28T11:48:33.020Z,21.09
2022-08-28T11:51:18.116Z,21.03
2022-08-28T11:54:00.049Z,21.28
2022-08-28T11:56:31.242Z,21.55
2022-08-28T11:59:08.102Z,21.67
2022-08-28T12:01:37.016Z,21.41
2022-08-28T12:04:08.416Z,21.28
2022-08-28T12:06:44.960Z,21.29
2022-08-28T12:09:13.328Z,21.62
2022-08-28T12:11:42.871Z,21.80
2022-08-28T12:14:33.277Z,21.71
2022-08-28T12:17:03.686Z,21.87
2022-08-28T12:19:30.734Z,21.98
2022-08-28T12:21:58.293Z,22.05
2022-08-28T12:24:28.645Z,22.08
2022-08-28T12:26:57.631Z,22.33
2022-08-28T12:29:32.135Z,22.30
2022-08-28T12:32:11.722Z,22.17
2022-08-28T12:34:53.837Z,22.18
2022-08-28T12:37:27.039Z,22.18
2022-08-28T12:39:56.088Z,22.29
2022-08-28T12:42:26.774Z,22.31
2022-08-28T12:44:59.386Z,22.18
2022-08-28T12:47:27.444Z,22.15
2022-08-28T12:49:54.531Z,22.01
2022-08-28T12:52:23.602Z,21.89
2022-08-28T12:54:51.483Z,21.89
2022-08-28T12:57:20.611Z,21.94
2022-08-28T12:59:52.207Z,21.98
2022-08-28T13:02:19.307Z,22.04
2022-08-28T13:05:04.671Z,22.11
2022-08-28T13:07:34.188Z,22.11
2022-08-28T13:10:03.493Z,22.12
2022-08-28T13:12:56.053Z,22.23
2022-08-28T13:15:41.641Z,22.21
2022-08-28T13:18:09.387Z,22.26
2022-08-28T13:21:00.485Z,22.25
2022-08-28T13:23:30.092Z,22.19
2022-08-28T13:26:03.259Z,22.16
2022-08-28T13:28:30.381Z,22.18
2022-08-28T13:30:58.341Z,22.20
2022-08-28T13:33:26.430Z,22.22
2022-08-28T13:35:54.133Z,22.27
2022-08-28T13:38:22.446Z,22.34
2022-08-28T13:40:57.832Z,22.32
2022-08-28T13:43:27.268Z,22.25
2022-08-28T13:45:54.867Z,22.28
2022-08-28T13:48:23.977Z,22.31
2022-08-28T13:50:53.702Z,22.41
2022-08-28T13:53:20.957Z,22.46
2022-08-28T13:55:48.871Z,22.47
2022-08-28T13:58:16.189Z,22.43
2022-08-28T14:00:48.495Z,22.38
2022-08-28T14:03:34.352Z,22.33
2022-08-28T14:06:02.857Z,22.28
2022-08-28T14:08:30.430Z,22.30
2022-08-28T14:10:57.630Z,22.33
2022-08-28T14:13:27.545Z,22.32
2022-08-28T14:15:55.471Z,22.37
2022-08-28T14:18:23.032Z,22.39
2022-08-28T14:20:50.127Z,22.32
2022-08-28T14:23:17.480Z,22.34
2022-08-28T14:25:45.935Z,22.31
2022-08-28T14:28:14.286Z,22.28
2022-08-28T14:30:45.344Z,22.25
2022-08-28T14:33:12.637Z,22.23
2022-08-28T14:35:40.714Z,22.25
2022-08-28T14:38:08.488Z,22.27
2022-08-28T14:40:40.461Z,22.28
2022-08-28T14:43:08.159Z,22.25
2022-08-28T14:45:41.521Z,22.20
2022-08-28T14:48:09.892Z,22.14
2022-08-28T14:50:43.964Z,22.14
2022-08-28T14:53:11.969Z,22.22
2022-08-28T14:55:43.910Z,22.24
2022-08-28T14:58:11.044Z,22.20
2022-08-28T15:00:42.687Z,22.03
2022-08-28T15:03:11.378Z,21.98
2022-08-28T15:05:38.624Z,22.03
2022-08-28T15:08:13.343Z,21.98
2022-08-28T15:10:42.025Z,21.93
2022-08-28T15:13:10.358Z,21.89
2022-08-28T15:15:39.567Z,21.94
2022-08-28T15:18:07.394Z,22.00
2022-08-28T15:20:46.307Z,22.01
2022-08-28T15:23:15.054Z,22.03
2022-08-28T15:25:42.659Z,22.11
2022-08-28T15:28:09.836Z,22.12
2022-08-28T15:30:37.005Z,22.13
2022-08-28T15:33:04.657Z,22.10
2022-08-28T15:35:33.691Z,22.12
2022-08-28T15:38:00.819Z,22.18
2022-08-28T15:40:46.345Z,22.23
2022-08-28T15:43:13.516Z,22.16
2022-08-28T15:45:41.240Z,22.16
2022-08-28T15:48:08.652Z,22.16
2022-08-28T15:50:35.770Z,22.10
2022-08-28T15:53:04.031Z,22.05
2022-08-28T15:55:34.151Z,22.06
2022-08-28T15:58:04.429Z,22.07
2022-08-28T16:00:35.994Z,22.02
2022-08-28T16:03:03.855Z,21.96
2022-08-28T16:05:35.493Z,21.84
2022-08-28T16:08:07.867Z,21.82
2022-08-28T16:10:35.172Z,21.69
2022-08-28T16:13:04.476Z,21.58
2022-08-28T16:15:31.994Z,21.55
2022-08-28T16:17:59.158Z,21.53
2022-08-28T16:20:26.269Z,21.52
2022-08-28T16:22:53.607Z,21.54
2022-08-28T16:25:20.676Z,21.54
2022-08-28T16:27:47.700Z,21.50
2022-08-28T16:30:15.614Z,21.40
2022-08-28T16:32:46.641Z,21.44
2022-08-28T16:35:14.925Z,21.42
2022-08-28T16:37:42.189Z,21.43
2022-08-28T16:40:10.056Z,21.44
2022-08-28T16:42:37.387Z,21.45
2022-08-28T16:45:05.592Z,21.45
2022-08-28T16:47:33.599Z,21.40
2022-08-28T16:50:02.489Z,21.38
2022-08-28T16:52:29.537Z,21.26
2022-08-28T16:54:56.598Z,21.18
2022-08-28T16:57:23.896Z,21.03
2022-08-28T16:59:53.059Z,20.89
2022-08-28T17:02:24.904Z,20.83
2022-08-28T17:04:54.817Z,20.80
2022-08-28T17:07:22.034Z,20.77
2022-08-28T17:09:49.069Z,20.78
2022-08-28T17:12:16.726Z,20.78
2022-08-28T17:14:44.275Z,20.75
2022-08-28T17:17:11.575Z,20.73
2022-08-28T17:19:38.834Z,20.68
2022-08-28T17:22:27.353Z,20.64
2022-08-28T17:24:55.627Z,20.59
2022-08-28T17:27:23.518Z,20.54
2022-08-28T17:29:51.041Z,20.49
2022-08-28T17:32:18.555Z,20.45
2022-08-28T17:34:45.676Z,20.41
2022-08-28T17:37:13.131Z,20.40
2022-08-28T17:39:40.150Z,20.38
2022-08-28T17:42:07.240Z,20.33
2022-08-28T17:44:35.392Z,20.28
2022-08-28T17:47:02.591Z,20.27
2022-08-28T17:49:29.791Z,20.24
2022-08-28T17:51:56.973Z,20.20
2022-08-28T17:54:24.481Z,20.14
2022-08-28T17:56:52.493Z,20.11
2022-08-28T17:59:20.103Z,20.09
2022-08-28T18:01:47.937Z,20.05
2022-08-28T18:04:19.035Z,19.99
2022-08-28T18:06:52.622Z,19.93
2022-08-28T18:09:20.021Z,19.90
2022-08-28T18:11:47.378Z,19.85
2022-08-28T18:14:14.474Z,19.79
2022-08-28T18:16:42.116Z,19.75
2022-08-28T18:19:09.930Z,19.75
2022-08-28T18:21:37.978Z,19.72
2022-08-28T18:24:05.769Z,19.70
2022-08-28T18:26:32.890Z,19.65
2022-08-28T18:29:00.028Z,19.61
2022-08-28T18:31:27.130Z,19.55
2022-08-28T18:33:54.713Z,19.48
2022-08-28T18:36:23.128Z,19.47
2022-08-28T18:38:50.914Z,19.43
2022-08-28T18:41:19.592Z,19.40
2022-08-28T18:43:46.883Z,19.38
2022-08-28T18:46:14.386Z,19.36
2022-08-28T18:48:42.051Z,19.30
2022-08-28T18:51:09.929Z,19.29
2022-08-28T18:53:37.483Z,19.24
2022-08-28T18:56:06.294Z,19.14
2022-08-28T18:58:33.488Z,19.05
2022-08-28T19:01:02.128Z,18.94
2022-08-28T19:03:30.193Z,18.80
2022-08-28T19:05:57.410Z,18.73
2022-08-28T19:08:25.248Z,18.66
2022-08-28T19:10:52.910Z,18.63
2022-08-28T19:13:20.446Z,18.62
2022-08-28T19:15:49.992Z,18.61
2022-08-28T19:18:17.814Z,18.61
2022-08-28T19:20:45.151Z,18.60
2022-08-28T19:23:16.799Z,18.59
2022-08-28T19:25:45.604Z,18.57
2022-08-28T19:28:12.684Z,18.57
2022-08-28T19:30:40.007Z,18.57
2022-08-28T19:33:07.174Z,18.56
2022-08-28T19:35:34.280Z,18.54
2022-08-28T19:38:01.293Z,18.54
2022-08-28T19:40:29.012Z,18.55
2022-08-28T19:42:56.287Z,18.54
2022-08-28T19:45:23.337Z,18.58
2022-08-28T19:47:50.491Z,18.59
2022-08-28T19:50:17.743Z,18.61
2022-08-28T19:52:46.472Z,18.62
2022-08-28T19:55:18.355Z,18.62
2022-08-28T19:57:46.790Z,18.60
2022-08-28T20:00:15.271Z,18.61
2022-08-28T20:02:42.363Z,18.60
2022-08-28T20:05:09.859Z,18.54
2022-08-28T20:07:37.055Z,18.51
2022-08-28T20:10:04.531Z,18.53
2022-08-28T20:12:31.618Z,18.54
2022-08-28T20:15:03.152Z,18.55
2022-08-28T20:17:31.143Z,18.54
2022-08-28T20:20:02.415Z,18.53
2022-08-28T20:22:31.993Z,18.54
2022-08-28T20:24:59.908Z,18.54
2022-08-28T20:27:27.097Z,18.51
2022-08-28T20:29:54.144Z,18.47
2022-08-28T20:32:21.231Z,18.43
2022-08-28T20:34:48.299Z,18.39
2022-08-28T20:37:16.770Z,18.37
2022-08-28T20:39:43.908Z,18.31
2022-08-28T20:42:11.754Z,18.27
2022-08-28T20:44:39.087Z,18.23
2022-08-28T20:47:06.421Z,18.20
2022-08-28T20:49:39.276Z,18.17
2022-08-28T20:52:06.865Z,18.13
2022-08-28T20:54:36.910Z,18.09
2022-08-28T20:57:07.522Z,18.06
2022-08-28T20:59:40.231Z,18.01
2022-08-28T21:02:10.300Z,17.96
2022-08-28T21:04:38.829Z,17.87
2022-08-28T21:07:06.115Z,17.81
2022-08-28T21:09:33.479Z,17.74
2022-08-28T21:12:20.579Z,17.71
2022-08-28T21:14:51.366Z,17.68
2022-08-28T21:17:22.601Z,17.65
2022-08-28T21:19:56.614Z,17.60
2022-08-28T21:22:23.660Z,17.50
2022-08-28T21:24:50.779Z,17.39
2022-08-28T21:27:18.643Z,17.28
2022-08-28T21:29:46.096Z,17.18
2022-08-28T21:32:13.311Z,17.20
2022-08-28T21:34:42.139Z,17.23
2022-08-28T21:37:09.211Z,17.26
2022-08-28T21:39:36.276Z,17.25
2022-08-28T21:42:03.519Z,17.20
2022-08-28T21:44:30.692Z,17.12
2022-08-28T21:46:59.317Z,17.13
2022-08-28T21:49:26.429Z,17.15
2022-08-28T21:51:53.532Z,17.12
2022-08-28T21:54:20.630Z,17.10
2022-08-28T21:56:48.301Z,17.12
2022-08-28T21:59:23.365Z,17.11
2022-08-28T22:01:52.133Z,17.09
2022-08-28T22:04:19.387Z,17.06
2022-08-28T22:06:46.605Z,17.06
2022-08-28T22:09:13.659Z,17.03
2022-08-28T22:11:41.334Z,17.00
2022-08-28T22:14:08.471Z,17.01
2022-08-28T22:16:35.561Z,17.04
2022-08-28T22:19:03.925Z,17.00
2022-08-28T22:21:49.625Z,16.95
2022-08-28T22:24:16.688Z,16.89
2022-08-28T22:26:43.774Z,16.86
2022-08-28T22:29:11.252Z,16.87
2022-08-28T22:31:45.426Z,16.89
2022-08-28T22:34:13.511Z,16.88
2022-08-28T22:36:41.222Z,16.84
2022-08-28T22:39:08.298Z,16.82
2022-08-28T22:41:37.481Z,16.77
2022-08-28T22:44:04.656Z,16.71
2022-08-28T22:46:31.780Z,16.73
2022-08-28T22:48:59.255Z,16.75
2022-08-28T22:51:26.317Z,16.77
2022-08-28T22:53:54.346Z,16.79
2022-08-28T22:56:21.571Z,16.73
2022-08-28T22:58:48.702Z,16.67
2022-08-28T23:01:21.075Z,16.59
2022-08-28T23:03:48.352Z,16.54
2022-08-28T23:06:15.945Z,16.57
2022-08-28T23:08:43.260Z,16.56
2022-08-28T23:11:10.726Z,16.58
2022-08-28T23:13:38.014Z,16.59
2022-08-28T23:16:05.187Z,16.64
2022-08-28T23:18:41.781Z,16.65
2022-08-28T23:21:20.753Z,16.64
2022-08-28T23:23:47.801Z,16.63
2022-08-28T23:26:15.328Z,16.64
2022-08-28T23:28:43.014Z,16.64
2022-08-28T23:31:10.268Z,16.64
2022-08-28T23:33:37.358Z,16.64
2022-08-28T23:36:04.639Z,16.64
2022-08-28T23:38:31.820Z,16.65
2022-08-28T23:40:59.250Z,16.68
2022-08-28T23:43:26.343Z,16.71
2022-08-28T23:45:53.433Z,16.79
2022-08-28T23:48:20.989Z,16.78
2022-08-28T23:50:48.570Z,16.76
2022-08-28T23:53:17.005Z,16.74
2022-08-28T23:55:44.382Z,16.73
2022-08-28T23:58:11.425Z,16.70
